sensor_id;sensor_type;location;lat;lon;timestamp;temperature;humidity
20866;DHT22;10593;48.398;10.698;2023-05-13T00:01:14;14.90;57.30
20866;DHT22;10593;48.398;10.698;2023-05-13T00:03:40;14.90;57.30
20866;DHT22;10593;48.398;10.698;2023-05-13T00:06:06;14.90;57.20
20866;DHT22;10593;48.398;10.698;2023-05-13T00:08:32;14.80;57.20
20866;DHT22;10593;48.398;10.698;2023-05-13T00:10:58;14.80;57.10
20866;DHT22;10593;48.398;10.698;2023-05-13T00:13:23;14.80;57.20
20866;DHT22;10593;48.398;10.698;2023-05-13T00:15:49;14.80;57.10
20866;DHT22;10593;48.398;10.698;2023-05-13T00:18:15;14.80;57.10
20866;DHT22;10593;48.398;10.698;2023-05-13T00:20:41;14.70;57.10
20866;DHT22;10593;48.398;10.698;2023-05-13T00:23:06;14.70;57.20
20866;DHT22;10593;48.398;10.698;2023-05-13T00:25:33;14.70;57.20
20866;DHT22;10593;48.398;10.698;2023-05-13T00:27:58;14.70;57.30
20866;DHT22;10593;48.398;10.698;2023-05-13T00:30:24;14.70;57.30
20866;DHT22;10593;48.398;10.698;2023-05-13T00:32:50;14.60;57.20
20866;DHT22;10593;48.398;10.698;2023-05-13T00:35:16;14.70;57.30
20866;DHT22;10593;48.398;10.698;2023-05-13T00:37:42;14.70;57.30
20866;DHT22;10593;48.398;10.698;2023-05-13T00:40:18;14.60;57.20
20866;DHT22;10593;48.398;10.698;2023-05-13T00:42:46;14.60;57.20
20866;DHT22;10593;48.398;10.698;2023-05-13T00:45:11;14.60;57.20
20866;DHT22;10593;48.398;10.698;2023-05-13T00:47:38;14.60;57.20
20866;DHT22;10593;48.398;10.698;2023-05-13T00:50:07;14.60;57.20
20866;DHT22;10593;48.398;10.698;2023-05-13T00:52:35;14.60;57.10
20866;DHT22;10593;48.398;10.698;2023-05-13T00:55:02;14.60;57.10
20866;DHT22;10593;48.398;10.698;2023-05-13T00:57:29;14.60;57.10
20866;DHT22;10593;48.398;10.698;2023-05-13T00:59:55;14.50;57.00
20866;DHT22;10593;48.398;10.698;2023-05-13T01:02:34;14.50;57.10
20866;DHT22;10593;48.398;10.698;2023-05-13T01:05:29;14.50;57.10
20866;DHT22;10593;48.398;10.698;2023-05-13T01:11:27;14.50;57.00
20866;DHT22;10593;48.398;10.698;2023-05-13T01:14:02;14.50;57.00
20866;DHT22;10593;48.398;10.698;2023-05-13T01:16:45;14.50;57.10
20866;DHT22;10593;48.398;10.698;2023-05-13T01:19:41;14.40;57.10
20866;DHT22;10593;48.398;10.698;2023-05-13T01:22:09;14.40;57.10
20866;DHT22;10593;48.398;10.698;2023-05-13T01:24:35;14.40;57.10
20866;DHT22;10593;48.398;10.698;2023-05-13T01:27:00;14.40;57.20
20866;DHT22;10593;48.398;10.698;2023-05-13T01:29:27;14.40;57.20
20866;DHT22;10593;48.398;10.698;2023-05-13T01:31:54;14.40;57.20
20866;DHT22;10593;48.398;10.698;2023-05-13T01:34:22;14.40;57.20
20866;DHT22;10593;48.398;10.698;2023-05-13T01:36:51;14.40;57.80
20866;DHT22;10593;48.398;10.698;2023-05-13T01:39:18;14.40;57.20
20866;DHT22;10593;48.398;10.698;2023-05-13T01:41:44;14.40;57.20
20866;DHT22;10593;48.398;10.698;2023-05-13T01:44:10;14.40;57.20
20866;DHT22;10593;48.398;10.698;2023-05-13T01:46:37;14.40;57.30
20866;DHT22;10593;48.398;10.698;2023-05-13T01:49:03;14.40;57.30
20866;DHT22;10593;48.398;10.698;2023-05-13T01:51:30;14.40;57.20
20866;DHT22;10593;48.398;10.698;2023-05-13T01:53:56;14.40;57.30
20866;DHT22;10593;48.398;10.698;2023-05-13T01:56:22;14.40;57.30
20866;DHT22;10593;48.398;10.698;2023-05-13T01:58:48;14.40;57.20
20866;DHT22;10593;48.398;10.698;2023-05-13T02:01:13;14.40;57.30
20866;DHT22;10593;48.398;10.698;2023-05-13T02:03:39;14.40;57.30
20866;DHT22;10593;48.398;10.698;2023-05-13T02:06:05;14.40;57.20
20866;DHT22;10593;48.398;10.698;2023-05-13T02:08:31;14.40;57.30
20866;DHT22;10593;48.398;10.698;2023-05-13T02:10:57;14.40;57.20
20866;DHT22;10593;48.398;10.698;2023-05-13T02:13:24;14.40;57.20
20866;DHT22;10593;48.398;10.698;2023-05-13T02:15:51;14.30;57.10
20866;DHT22;10593;48.398;10.698;2023-05-13T02:18:17;14.40;57.20
20866;DHT22;10593;48.398;10.698;2023-05-13T02:20:43;14.40;57.30
20866;DHT22;10593;48.398;10.698;2023-05-13T02:23:09;14.40;57.30
20866;DHT22;10593;48.398;10.698;2023-05-13T02:25:36;14.40;57.30
20866;DHT22;10593;48.398;10.698;2023-05-13T02:28:01;14.40;57.30
20866;DHT22;10593;48.398;10.698;2023-05-13T02:30:27;14.40;57.30
20866;DHT22;10593;48.398;10.698;2023-05-13T02:32:53;14.40;57.30
20866;DHT22;10593;48.398;10.698;2023-05-13T02:35:20;14.40;57.40
20866;DHT22;10593;48.398;10.698;2023-05-13T02:37:47;14.30;57.30
20866;DHT22;10593;48.398;10.698;2023-05-13T02:40:13;14.40;57.30
20866;DHT22;10593;48.398;10.698;2023-05-13T02:42:39;14.30;57.30
20866;DHT22;10593;48.398;10.698;2023-05-13T02:45:05;14.30;57.40
20866;DHT22;10593;48.398;10.698;2023-05-13T02:47:31;14.30;57.40
20866;DHT22;10593;48.398;10.698;2023-05-13T02:49:57;14.30;57.30
20866;DHT22;10593;48.398;10.698;2023-05-13T02:52:23;14.30;57.30
20866;DHT22;10593;48.398;10.698;2023-05-13T02:54:48;14.30;57.30
20866;DHT22;10593;48.398;10.698;2023-05-13T02:57:14;14.30;57.30
20866;DHT22;10593;48.398;10.698;2023-05-13T02:59:40;14.30;57.30
20866;DHT22;10593;48.398;10.698;2023-05-13T03:02:06;14.30;57.20
20866;DHT22;10593;48.398;10.698;2023-05-13T03:04:31;14.30;57.20
20866;DHT22;10593;48.398;10.698;2023-05-13T03:06:57;14.30;57.20
20866;DHT22;10593;48.398;10.698;2023-05-13T03:09:23;14.30;57.10
20866;DHT22;10593;48.398;10.698;2023-05-13T03:11:49;14.30;57.00
20866;DHT22;10593;48.398;10.698;2023-05-13T03:14:14;14.30;57.00
20866;DHT22;10593;48.398;10.698;2023-05-13T03:16:40;14.30;57.10
20866;DHT22;10593;48.398;10.698;2023-05-13T03:19:06;14.30;57.10
20866;DHT22;10593;48.398;10.698;2023-05-13T03:21:31;14.30;57.10
20866;DHT22;10593;48.398;10.698;2023-05-13T03:23:57;14.30;57.10
20866;DHT22;10593;48.398;10.698;2023-05-13T03:26:23;14.30;57.10
20866;DHT22;10593;48.398;10.698;2023-05-13T03:28:48;14.30;57.10
20866;DHT22;10593;48.398;10.698;2023-05-13T03:31:14;14.30;57.10
20866;DHT22;10593;48.398;10.698;2023-05-13T03:33:40;14.30;57.20
20866;DHT22;10593;48.398;10.698;2023-05-13T03:36:05;14.20;57.20
20866;DHT22;10593;48.398;10.698;2023-05-13T03:38:31;14.20;57.20
20866;DHT22;10593;48.398;10.698;2023-05-13T03:40:57;14.20;57.20
20866;DHT22;10593;48.398;10.698;2023-05-13T03:43:23;14.20;57.20
20866;DHT22;10593;48.398;10.698;2023-05-13T03:45:49;14.20;57.20
20866;DHT22;10593;48.398;10.698;2023-05-13T03:48:15;14.20;57.20
20866;DHT22;10593;48.398;10.698;2023-05-13T03:50:41;14.20;57.20
20866;DHT22;10593;48.398;10.698;2023-05-13T03:53:08;14.20;57.20
20866;DHT22;10593;48.398;10.698;2023-05-13T03:55:35;14.20;57.30
20866;DHT22;10593;48.398;10.698;2023-05-13T03:58:13;14.10;57.20
20866;DHT22;10593;48.398;10.698;2023-05-13T04:00:40;14.10;57.40
20866;DHT22;10593;48.398;10.698;2023-05-13T04:03:07;14.10;57.40
20866;DHT22;10593;48.398;10.698;2023-05-13T04:05:33;14.10;57.40
20866;DHT22;10593;48.398;10.698;2023-05-13T04:07:59;14.10;57.60
20866;DHT22;10593;48.398;10.698;2023-05-13T04:10:25;14.10;57.60
20866;DHT22;10593;48.398;10.698;2023-05-13T04:12:50;14.10;57.50
20866;DHT22;10593;48.398;10.698;2023-05-13T04:15:16;14.10;57.60
20866;DHT22;10593;48.398;10.698;2023-05-13T04:17:41;14.10;57.70
20866;DHT22;10593;48.398;10.698;2023-05-13T04:20:07;14.10;57.70
20866;DHT22;10593;48.398;10.698;2023-05-13T04:22:33;14.10;57.80
20866;DHT22;10593;48.398;10.698;2023-05-13T04:24:59;14.10;57.70
20866;DHT22;10593;48.398;10.698;2023-05-13T04:27:25;14.10;57.70
20866;DHT22;10593;48.398;10.698;2023-05-13T04:29:53;14.10;57.70
20866;DHT22;10593;48.398;10.698;2023-05-13T04:32:19;14.00;57.70
20866;DHT22;10593;48.398;10.698;2023-05-13T04:34:49;14.10;58.00
20866;DHT22;10593;48.398;10.698;2023-05-13T04:37:16;14.10;57.80
20866;DHT22;10593;48.398;10.698;2023-05-13T04:39:44;14.10;57.70
20866;DHT22;10593;48.398;10.698;2023-05-13T04:42:11;14.10;57.70
20866;DHT22;10593;48.398;10.698;2023-05-13T04:44:37;14.10;57.90
20866;DHT22;10593;48.398;10.698;2023-05-13T04:47:03;14.10;57.80
20866;DHT22;10593;48.398;10.698;2023-05-13T04:49:28;14.10;57.90
20866;DHT22;10593;48.398;10.698;2023-05-13T04:51:54;14.10;57.90
20866;DHT22;10593;48.398;10.698;2023-05-13T04:54:20;14.10;57.90
20866;DHT22;10593;48.398;10.698;2023-05-13T04:56:45;14.10;57.70
20866;DHT22;10593;48.398;10.698;2023-05-13T04:59:11;14.10;57.70
20866;DHT22;10593;48.398;10.698;2023-05-13T05:01:37;14.10;57.80
20866;DHT22;10593;48.398;10.698;2023-05-13T05:04:03;14.10;57.90
20866;DHT22;10593;48.398;10.698;2023-05-13T05:06:30;14.10;58.00
20866;DHT22;10593;48.398;10.698;2023-05-13T05:08:57;14.10;58.00
20866;DHT22;10593;48.398;10.698;2023-05-13T05:11:23;14.10;58.00
20866;DHT22;10593;48.398;10.698;2023-05-13T05:13:48;14.10;58.00
20866;DHT22;10593;48.398;10.698;2023-05-13T05:16:14;14.10;58.00
20866;DHT22;10593;48.398;10.698;2023-05-13T05:18:40;14.10;58.00
20866;DHT22;10593;48.398;10.698;2023-05-13T05:21:08;14.10;58.00
20866;DHT22;10593;48.398;10.698;2023-05-13T05:23:34;14.10;58.00
20866;DHT22;10593;48.398;10.698;2023-05-13T05:26:01;14.10;58.00
20866;DHT22;10593;48.398;10.698;2023-05-13T05:28:28;14.10;58.00
20866;DHT22;10593;48.398;10.698;2023-05-13T05:30:54;14.10;58.00
20866;DHT22;10593;48.398;10.698;2023-05-13T05:33:20;14.10;58.00
20866;DHT22;10593;48.398;10.698;2023-05-13T05:35:47;14.10;58.00
20866;DHT22;10593;48.398;10.698;2023-05-13T05:38:13;14.10;58.00
20866;DHT22;10593;48.398;10.698;2023-05-13T05:40:43;14.10;58.00
20866;DHT22;10593;48.398;10.698;2023-05-13T05:43:09;14.10;58.00
20866;DHT22;10593;48.398;10.698;2023-05-13T05:45:39;14.10;58.00
20866;DHT22;10593;48.398;10.698;2023-05-13T05:48:05;14.10;58.00
20866;DHT22;10593;48.398;10.698;2023-05-13T05:50:32;14.20;58.10
20866;DHT22;10593;48.398;10.698;2023-05-13T05:52:58;14.10;58.00
20866;DHT22;10593;48.398;10.698;2023-05-13T05:55:25;14.20;58.10
20866;DHT22;10593;48.398;10.698;2023-05-13T05:57:53;14.10;58.00
20866;DHT22;10593;48.398;10.698;2023-05-13T06:00:20;14.10;58.00
20866;DHT22;10593;48.398;10.698;2023-05-13T06:02:46;14.10;58.00
20866;DHT22;10593;48.398;10.698;2023-05-13T06:05:13;14.10;58.00
20866;DHT22;10593;48.398;10.698;2023-05-13T06:07:39;14.10;58.00
20866;DHT22;10593;48.398;10.698;2023-05-13T06:10:05;14.10;58.00
20866;DHT22;10593;48.398;10.698;2023-05-13T06:12:31;14.10;58.00
20866;DHT22;10593;48.398;10.698;2023-05-13T06:14:57;14.10;58.00
20866;DHT22;10593;48.398;10.698;2023-05-13T06:17:24;14.10;58.00
20866;DHT22;10593;48.398;10.698;2023-05-13T06:19:49;14.10;58.10
20866;DHT22;10593;48.398;10.698;2023-05-13T06:22:15;14.10;58.30
20866;DHT22;10593;48.398;10.698;2023-05-13T06:24:41;14.10;58.30
20866;DHT22;10593;48.398;10.698;2023-05-13T06:27:10;14.10;58.30
20866;DHT22;10593;48.398;10.698;2023-05-13T06:29:39;14.10;58.40
20866;DHT22;10593;48.398;10.698;2023-05-13T06:32:04;14.10;58.40
20866;DHT22;10593;48.398;10.698;2023-05-13T06:34:31;14.10;58.40
20866;DHT22;10593;48.398;10.698;2023-05-13T06:36:56;14.10;58.40
20866;DHT22;10593;48.398;10.698;2023-05-13T06:39:22;14.10;58.30
20866;DHT22;10593;48.398;10.698;2023-05-13T06:41:48;14.10;58.20
20866;DHT22;10593;48.398;10.698;2023-05-13T06:44:16;14.10;58.10
20866;DHT22;10593;48.398;10.698;2023-05-13T06:46:42;14.10;58.40
20866;DHT22;10593;48.398;10.698;2023-05-13T06:49:07;14.10;58.40
20866;DHT22;10593;48.398;10.698;2023-05-13T06:51:33;14.10;58.40
20866;DHT22;10593;48.398;10.698;2023-05-13T06:54:00;14.10;58.40
20866;DHT22;10593;48.398;10.698;2023-05-13T06:56:25;14.10;58.50
20866;DHT22;10593;48.398;10.698;2023-05-13T06:58:52;14.10;58.50
20866;DHT22;10593;48.398;10.698;2023-05-13T07:01:18;14.10;58.50
20866;DHT22;10593;48.398;10.698;2023-05-13T07:03:44;14.10;58.50
20866;DHT22;10593;48.398;10.698;2023-05-13T07:06:10;14.10;58.50
20866;DHT22;10593;48.398;10.698;2023-05-13T07:08:36;14.10;58.50
20866;DHT22;10593;48.398;10.698;2023-05-13T07:11:03;14.10;59.00
20866;DHT22;10593;48.398;10.698;2023-05-13T07:13:29;14.10;58.50
20866;DHT22;10593;48.398;10.698;2023-05-13T07:15:57;14.10;58.50
20866;DHT22;10593;48.398;10.698;2023-05-13T07:18:23;14.10;58.50
20866;DHT22;10593;48.398;10.698;2023-05-13T07:20:49;14.10;58.50
20866;DHT22;10593;48.398;10.698;2023-05-13T07:23:14;14.10;58.40
20866;DHT22;10593;48.398;10.698;2023-05-13T07:25:40;14.10;58.40
20866;DHT22;10593;48.398;10.698;2023-05-13T07:28:06;14.10;58.40
20866;DHT22;10593;48.398;10.698;2023-05-13T07:30:32;14.10;58.40
20866;DHT22;10593;48.398;10.698;2023-05-13T07:32:58;14.10;58.40
20866;DHT22;10593;48.398;10.698;2023-05-13T07:35:23;14.10;58.50
20866;DHT22;10593;48.398;10.698;2023-05-13T07:37:49;14.10;58.50
20866;DHT22;10593;48.398;10.698;2023-05-13T07:40:14;14.10;58.50
20866;DHT22;10593;48.398;10.698;2023-05-13T07:42:42;14.10;58.50
20866;DHT22;10593;48.398;10.698;2023-05-13T07:45:08;14.10;58.50
20866;DHT22;10593;48.398;10.698;2023-05-13T07:47:34;14.10;58.60
20866;DHT22;10593;48.398;10.698;2023-05-13T07:49:59;14.10;58.60
20866;DHT22;10593;48.398;10.698;2023-05-13T07:52:25;14.10;58.70
20866;DHT22;10593;48.398;10.698;2023-05-13T07:54:51;14.10;58.70
20866;DHT22;10593;48.398;10.698;2023-05-13T07:57:17;14.10;58.60
20866;DHT22;10593;48.398;10.698;2023-05-13T07:59:43;14.10;58.50
20866;DHT22;10593;48.398;10.698;2023-05-13T08:02:09;14.10;58.70
20866;DHT22;10593;48.398;10.698;2023-05-13T08:04:35;14.10;58.70
20866;DHT22;10593;48.398;10.698;2023-05-13T08:07:01;14.10;58.70
20866;DHT22;10593;48.398;10.698;2023-05-13T08:09:27;14.10;58.70
20866;DHT22;10593;48.398;10.698;2023-05-13T08:11:52;14.10;58.70
20866;DHT22;10593;48.398;10.698;2023-05-13T08:14:19;14.10;58.70
20866;DHT22;10593;48.398;10.698;2023-05-13T08:16:45;14.10;58.50
20866;DHT22;10593;48.398;10.698;2023-05-13T08:19:13;14.10;58.50
20866;DHT22;10593;48.398;10.698;2023-05-13T08:21:39;14.10;58.50
20866;DHT22;10593;48.398;10.698;2023-05-13T08:24:05;14.10;58.50
20866;DHT22;10593;48.398;10.698;2023-05-13T08:26:31;14.10;58.60
20866;DHT22;10593;48.398;10.698;2023-05-13T08:28:58;14.10;58.60
20866;DHT22;10593;48.398;10.698;2023-05-13T08:31:24;14.10;58.60
20866;DHT22;10593;48.398;10.698;2023-05-13T08:33:50;14.20;58.60
20866;DHT22;10593;48.398;10.698;2023-05-13T08:36:18;14.20;58.70
20866;DHT22;10593;48.398;10.698;2023-05-13T08:38:44;14.20;58.70
20866;DHT22;10593;48.398;10.698;2023-05-13T08:41:14;14.20;58.70
20866;DHT22;10593;48.398;10.698;2023-05-13T08:43:42;14.20;58.80
20866;DHT22;10593;48.398;10.698;2023-05-13T08:46:09;14.20;58.80
20866;DHT22;10593;48.398;10.698;2023-05-13T08:48:40;14.20;58.70
20866;DHT22;10593;48.398;10.698;2023-05-13T08:51:07;14.20;58.70
20866;DHT22;10593;48.398;10.698;2023-05-13T08:53:34;14.20;58.80
20866;DHT22;10593;48.398;10.698;2023-05-13T08:56:02;14.20;58.80
20866;DHT22;10593;48.398;10.698;2023-05-13T08:58:30;14.20;59.00
20866;DHT22;10593;48.398;10.698;2023-05-13T09:00:56;14.20;59.00
20866;DHT22;10593;48.398;10.698;2023-05-13T09:03:23;14.30;59.10
20866;DHT22;10593;48.398;10.698;2023-05-13T09:05:51;14.30;59.60
20866;DHT22;10593;48.398;10.698;2023-05-13T09:08:17;14.30;59.00
20866;DHT22;10593;48.398;10.698;2023-05-13T09:10:43;14.30;58.90
20866;DHT22;10593;48.398;10.698;2023-05-13T09:13:11;14.30;58.80
20866;DHT22;10593;48.398;10.698;2023-05-13T09:15:40;14.40;58.90
20866;DHT22;10593;48.398;10.698;2023-05-13T09:18:07;14.40;58.80
20866;DHT22;10593;48.398;10.698;2023-05-13T09:20:34;14.40;58.80
20866;DHT22;10593;48.398;10.698;2023-05-13T09:23:08;14.40;58.70
20866;DHT22;10593;48.398;10.698;2023-05-13T09:25:36;14.40;58.50
20866;DHT22;10593;48.398;10.698;2023-05-13T09:28:05;14.40;58.60
20866;DHT22;10593;48.398;10.698;2023-05-13T09:30:39;14.40;58.60
20866;DHT22;10593;48.398;10.698;2023-05-13T09:35:43;14.40;58.30
20866;DHT22;10593;48.398;10.698;2023-05-13T09:38:15;14.40;58.20
20866;DHT22;10593;48.398;10.698;2023-05-13T09:40:59;14.40;58.20
20866;DHT22;10593;48.398;10.698;2023-05-13T09:43:30;14.40;58.20
20866;DHT22;10593;48.398;10.698;2023-05-13T09:46:03;14.40;58.20
20866;DHT22;10593;48.398;10.698;2023-05-13T09:48:32;14.40;58.30
20866;DHT22;10593;48.398;10.698;2023-05-13T09:50:58;14.40;58.30
20866;DHT22;10593;48.398;10.698;2023-05-13T09:53:25;14.40;58.30
20866;DHT22;10593;48.398;10.698;2023-05-13T09:55:53;14.40;58.30
20866;DHT22;10593;48.398;10.698;2023-05-13T09:58:21;14.40;58.50
20866;DHT22;10593;48.398;10.698;2023-05-13T10:00:52;14.40;58.40
20866;DHT22;10593;48.398;10.698;2023-05-13T10:03:18;14.40;58.30
20866;DHT22;10593;48.398;10.698;2023-05-13T10:05:45;14.40;58.60
20866;DHT22;10593;48.398;10.698;2023-05-13T10:08:12;14.50;58.70
20866;DHT22;10593;48.398;10.698;2023-05-13T10:10:40;14.50;58.80
20866;DHT22;10593;48.398;10.698;2023-05-13T10:13:09;14.50;58.80
20866;DHT22;10593;48.398;10.698;2023-05-13T10:15:47;14.50;58.60
20866;DHT22;10593;48.398;10.698;2023-05-13T10:18:16;14.50;58.30
20866;DHT22;10593;48.398;10.698;2023-05-13T10:20:43;14.50;58.30
20866;DHT22;10593;48.398;10.698;2023-05-13T10:23:09;14.50;58.30
20866;DHT22;10593;48.398;10.698;2023-05-13T10:25:36;14.60;58.80
20866;DHT22;10593;48.398;10.698;2023-05-13T10:28:03;14.60;58.90
20866;DHT22;10593;48.398;10.698;2023-05-13T10:30:30;14.60;58.90
20866;DHT22;10593;48.398;10.698;2023-05-13T10:33:00;14.60;58.80
20866;DHT22;10593;48.398;10.698;2023-05-13T10:35:33;14.70;59.00
20866;DHT22;10593;48.398;10.698;2023-05-13T10:44:09;14.80;58.90
20866;DHT22;10593;48.398;10.698;2023-05-13T10:46:35;14.80;58.60
20866;DHT22;10593;48.398;10.698;2023-05-13T10:49:03;14.70;58.50
20866;DHT22;10593;48.398;10.698;2023-05-13T10:51:29;14.70;58.50
20866;DHT22;10593;48.398;10.698;2023-05-13T10:53:57;14.80;58.60
20866;DHT22;10593;48.398;10.698;2023-05-13T10:56:25;14.70;58.50
20866;DHT22;10593;48.398;10.698;2023-05-13T10:58:59;14.70;58.50
20866;DHT22;10593;48.398;10.698;2023-05-13T11:01:33;14.80;58.60
20866;DHT22;10593;48.398;10.698;2023-05-13T11:04:03;14.80;58.60
20866;DHT22;10593;48.398;10.698;2023-05-13T11:06:37;14.70;58.50
20866;DHT22;10593;48.398;10.698;2023-05-13T11:09:12;14.80;58.90
20866;DHT22;10593;48.398;10.698;2023-05-13T11:11:39;14.80;59.00
20866;DHT22;10593;48.398;10.698;2023-05-13T11:14:19;14.80;59.00
20866;DHT22;10593;48.398;10.698;2023-05-13T11:16:47;14.80;59.00
20866;DHT22;10593;48.398;10.698;2023-05-13T11:19:29;14.90;58.70
20866;DHT22;10593;48.398;10.698;2023-05-13T11:22:11;14.90;58.70
20866;DHT22;10593;48.398;10.698;2023-05-13T11:24:39;14.90;58.70
20866;DHT22;10593;48.398;10.698;2023-05-13T11:27:20;14.90;58.70
20866;DHT22;10593;48.398;10.698;2023-05-13T11:29:51;14.90;58.70
20866;DHT22;10593;48.398;10.698;2023-05-13T11:35:24;14.90;58.70
20866;DHT22;10593;48.398;10.698;2023-05-13T11:37:55;14.90;58.40
20866;DHT22;10593;48.398;10.698;2023-05-13T11:40:34;14.90;58.40
20866;DHT22;10593;48.398;10.698;2023-05-13T11:43:01;15.00;58.50
20866;DHT22;10593;48.398;10.698;2023-05-13T11:45:30;14.90;58.60
20866;DHT22;10593;48.398;10.698;2023-05-13T11:47:56;15.00;58.70
20866;DHT22;10593;48.398;10.698;2023-05-13T11:50:25;15.00;58.70
20866;DHT22;10593;48.398;10.698;2023-05-13T11:52:55;15.00;58.50
20866;DHT22;10593;48.398;10.698;2023-05-13T11:55:29;15.00;58.50
20866;DHT22;10593;48.398;10.698;2023-05-13T11:57:57;15.00;58.40
20866;DHT22;10593;48.398;10.698;2023-05-13T12:00:24;15.00;58.40
20866;DHT22;10593;48.398;10.698;2023-05-13T12:02:52;15.00;58.30
20866;DHT22;10593;48.398;10.698;2023-05-13T12:05:18;15.00;58.50
20866;DHT22;10593;48.398;10.698;2023-05-13T12:07:44;15.00;58.40
20866;DHT22;10593;48.398;10.698;2023-05-13T12:10:10;15.00;58.40
20866;DHT22;10593;48.398;10.698;2023-05-13T12:12:38;15.10;59.00
20866;DHT22;10593;48.398;10.698;2023-05-13T12:15:11;15.00;58.30
20866;DHT22;10593;48.398;10.698;2023-05-13T12:17:38;15.10;58.50
20866;DHT22;10593;48.398;10.698;2023-05-13T12:20:25;15.10;58.40
20866;DHT22;10593;48.398;10.698;2023-05-13T12:22:52;15.00;58.20
20866;DHT22;10593;48.398;10.698;2023-05-13T12:30:53;15.10;58.50
20866;DHT22;10593;48.398;10.698;2023-05-13T12:33:25;15.10;58.80
20866;DHT22;10593;48.398;10.698;2023-05-13T12:36:23;15.10;58.80
20866;DHT22;10593;48.398;10.698;2023-05-13T12:39:10;15.10;58.80
20866;DHT22;10593;48.398;10.698;2023-05-13T12:41:40;15.10;58.80
20866;DHT22;10593;48.398;10.698;2023-05-13T12:44:12;15.10;58.80
20866;DHT22;10593;48.398;10.698;2023-05-13T12:46:49;15.10;58.80
20866;DHT22;10593;48.398;10.698;2023-05-13T12:49:16;15.10;58.80
20866;DHT22;10593;48.398;10.698;2023-05-13T12:51:41;15.20;58.90
20866;DHT22;10593;48.398;10.698;2023-05-13T12:54:07;15.10;58.80
20866;DHT22;10593;48.398;10.698;2023-05-13T12:56:33;15.20;58.90
20866;DHT22;10593;48.398;10.698;2023-05-13T12:58:58;15.10;58.80
20866;DHT22;10593;48.398;10.698;2023-05-13T13:01:24;15.20;58.90
20866;DHT22;10593;48.398;10.698;2023-05-13T13:03:50;15.10;58.80
20866;DHT22;10593;48.398;10.698;2023-05-13T13:06:17;15.20;58.90
20866;DHT22;10593;48.398;10.698;2023-05-13T13:08:43;15.20;58.90
20866;DHT22;10593;48.398;10.698;2023-05-13T13:11:08;15.20;58.90
20866;DHT22;10593;48.398;10.698;2023-05-13T13:13:34;15.20;58.90
20866;DHT22;10593;48.398;10.698;2023-05-13T13:16:00;15.20;58.90
20866;DHT22;10593;48.398;10.698;2023-05-13T13:18:26;15.20;58.90
20866;DHT22;10593;48.398;10.698;2023-05-13T13:20:52;15.30;59.00
20866;DHT22;10593;48.398;10.698;2023-05-13T13:23:18;15.20;58.90
20866;DHT22;10593;48.398;10.698;2023-05-13T13:25:44;15.30;59.00
20866;DHT22;10593;48.398;10.698;2023-05-13T13:28:10;15.30;59.20
20866;DHT22;10593;48.398;10.698;2023-05-13T13:30:36;15.30;59.30
20866;DHT22;10593;48.398;10.698;2023-05-13T13:33:02;15.30;59.10
20866;DHT22;10593;48.398;10.698;2023-05-13T13:35:28;15.40;59.20
20866;DHT22;10593;48.398;10.698;2023-05-13T13:37:54;15.40;59.10
20866;DHT22;10593;48.398;10.698;2023-05-13T13:40:20;15.40;59.10
20866;DHT22;10593;48.398;10.698;2023-05-13T13:42:46;15.50;58.90
20866;DHT22;10593;48.398;10.698;2023-05-13T13:45:12;15.50;58.80
20866;DHT22;10593;48.398;10.698;2023-05-13T13:47:38;15.50;59.20
20866;DHT22;10593;48.398;10.698;2023-05-13T13:50:05;15.50;59.00
20866;DHT22;10593;48.398;10.698;2023-05-13T13:52:31;15.60;59.00
20866;DHT22;10593;48.398;10.698;2023-05-13T13:54:56;15.60;59.20
20866;DHT22;10593;48.398;10.698;2023-05-13T13:57:22;15.70;59.40
20866;DHT22;10593;48.398;10.698;2023-05-13T13:59:48;15.70;59.30
20866;DHT22;10593;48.398;10.698;2023-05-13T14:02:13;15.80;59.20
20866;DHT22;10593;48.398;10.698;2023-05-13T14:04:39;15.80;58.80
20866;DHT22;10593;48.398;10.698;2023-05-13T14:07:04;15.80;58.30
20866;DHT22;10593;48.398;10.698;2023-05-13T14:09:30;15.90;58.20
20866;DHT22;10593;48.398;10.698;2023-05-13T14:11:57;15.90;58.00
20866;DHT22;10593;48.398;10.698;2023-05-13T14:14:23;15.90;57.90
20866;DHT22;10593;48.398;10.698;2023-05-13T14:16:49;15.90;57.90
20866;DHT22;10593;48.398;10.698;2023-05-13T14:19:15;15.90;57.80
20866;DHT22;10593;48.398;10.698;2023-05-13T14:21:44;15.90;57.60
20866;DHT22;10593;48.398;10.698;2023-05-13T14:24:10;15.90;57.60
20866;DHT22;10593;48.398;10.698;2023-05-13T14:26:36;15.90;57.60
20866;DHT22;10593;48.398;10.698;2023-05-13T14:29:02;15.90;57.70
20866;DHT22;10593;48.398;10.698;2023-05-13T14:31:28;15.90;57.60
20866;DHT22;10593;48.398;10.698;2023-05-13T14:33:54;15.90;57.70
20866;DHT22;10593;48.398;10.698;2023-05-13T14:36:19;15.90;57.80
20866;DHT22;10593;48.398;10.698;2023-05-13T14:38:47;15.90;58.20
20866;DHT22;10593;48.398;10.698;2023-05-13T14:41:12;16.00;58.10
20866;DHT22;10593;48.398;10.698;2023-05-13T14:43:44;16.00;58.10
20866;DHT22;10593;48.398;10.698;2023-05-13T14:46:11;16.10;58.10
20866;DHT22;10593;48.398;10.698;2023-05-13T14:48:37;16.10;58.10
20866;DHT22;10593;48.398;10.698;2023-05-13T14:51:03;16.10;58.10
20866;DHT22;10593;48.398;10.698;2023-05-13T14:53:29;16.20;58.20
20866;DHT22;10593;48.398;10.698;2023-05-13T14:55:54;16.20;58.00
20866;DHT22;10593;48.398;10.698;2023-05-13T14:58:20;16.20;57.80
20866;DHT22;10593;48.398;10.698;2023-05-13T18:49:03;16.40;57.70
20866;DHT22;10593;48.398;10.698;2023-05-13T18:51:32;16.40;57.50
20866;DHT22;10593;48.398;10.698;2023-05-13T18:53:59;16.40;57.70
20866;DHT22;10593;48.398;10.698;2023-05-13T18:56:26;16.40;57.70
20866;DHT22;10593;48.398;10.698;2023-05-13T18:58:52;16.40;57.90
20866;DHT22;10593;48.398;10.698;2023-05-13T19:01:17;16.40;58.10
20866;DHT22;10593;48.398;10.698;2023-05-13T19:03:43;16.30;58.00
20866;DHT22;10593;48.398;10.698;2023-05-13T19:06:09;16.40;58.10
20866;DHT22;10593;48.398;10.698;2023-05-13T19:08:35;16.40;58.00
20866;DHT22;10593;48.398;10.698;2023-05-13T19:11:00;16.40;57.90
20866;DHT22;10593;48.398;10.698;2023-05-13T19:13:26;16.40;58.00
20866;DHT22;10593;48.398;10.698;2023-05-13T19:15:52;16.40;58.10
20866;DHT22;10593;48.398;10.698;2023-05-13T19:18:18;16.30;58.00
20866;DHT22;10593;48.398;10.698;2023-05-13T19:20:44;16.40;58.10
20866;DHT22;10593;48.398;10.698;2023-05-13T19:23:12;16.30;58.10
20866;DHT22;10593;48.398;10.698;2023-05-13T19:25:38;16.30;58.20